sensor_id;sensor_type;location;lat;lon;timestamp;pressure;altitude;pressure_sealevel;temperature;humidity
16194;BME280;8204;53.582;10.080;2022-11-15T00:01:31;99715.59;;;8.15;100.00
16194;BME280;8204;53.582;10.080;2022-11-15T00:04:01;99727.84;;;8.15;100.00
16194;BME280;8204;53.582;10.080;2022-11-15T00:06:30;99723.91;;;8.11;100.00
16194;BME280;8204;53.582;10.080;2022-11-15T00:08:59;99754.56;;;8.09;100.00
16194;BME280;8204;53.582;10.080;2022-11-15T00:11:30;99724.25;;;8.08;100.00
16194;BME280;8204;53.582;10.080;2022-11-15T00:13:59;99710.72;;;8.04;100.00
16194;BME280;8204;53.582;10.080;2022-11-15T00:16:29;99692.28;;;8.06;100.00
16194;BME280;8204;53.582;10.080;2022-11-15T00:18:58;99696.03;;;8.03;100.00
16194;BME280;8204;53.582;10.080;2022-11-15T00:21:27;99698.03;;;8.01;100.00
16194;BME280;8204;53.582;10.080;2022-11-15T00:23:55;99697.84;;;8.03;100.00
16194;BME280;8204;53.582;10.080;2022-11-15T00:26:24;99700.63;;;8.01;100.00
16194;BME280;8204;53.582;10.080;2022-11-15T00:28:55;99690.19;;;8.01;100.00
16194;BME280;8204;53.582;10.080;2022-11-15T00:31:24;99695.41;;;8.01;100.00
16194;BME280;8204;53.582;10.080;2022-11-15T00:33:53;99671.09;;;8.01;100.00
16194;BME280;8204;53.582;10.080;2022-11-15T00:36:22;99662.31;;;8.02;100.00
16194;BME280;8204;53.582;10.080;2022-11-15T00:38:51;99648.47;;;8.01;100.00
16194;BME280;8204;53.582;10.080;2022-11-15T00:41:20;99635.72;;;8.06;100.00
16194;BME280;8204;53.582;10.080;2022-11-15T00:43:49;99628.50;;;8.08;100.00
16194;BME280;8204;53.582;10.080;2022-11-15T00:46:20;99620.38;;;8.03;100.00
16194;BME280;8204;53.582;10.080;2022-11-15T00:48:49;99618.44;;;8.05;100.00
16194;BME280;8204;53.582;10.080;2022-11-15T00:51:18;99615.66;;;8.07;100.00
16194;BME280;8204;53.582;10.080;2022-11-15T00:53:46;99618.63;;;8.04;100.00
16194;BME280;8204;53.582;10.080;2022-11-15T00:56:15;99632.81;;;8.01;100.00
16194;BME280;8204;53.582;10.080;2022-11-15T00:58:44;99635.41;;;8.01;100.00
16194;BME280;8204;53.582;10.080;2022-11-15T01:01:14;99652.84;;;8.01;100.00
16194;BME280;8204;53.582;10.080;2022-11-15T01:03:45;99639.63;;;8.02;100.00
16194;BME280;8204;53.582;10.080;2022-11-15T01:06:14;99607.34;;;8.03;100.00
16194;BME280;8204;53.582;10.080;2022-11-15T01:08:43;99595.13;;;8.04;100.00
16194;BME280;8204;53.582;10.080;2022-11-15T01:11:12;99580.75;;;8.08;100.00
16194;BME280;8204;53.582;10.080;2022-11-15T01:13:41;99585.66;;;8.11;100.00
16194;BME280;8204;53.582;10.080;2022-11-15T01:16:12;99584.63;;;8.12;100.00
16194;BME280;8204;53.582;10.080;2022-11-15T01:18:45;99586.44;;;8.11;100.00
16194;BME280;8204;53.582;10.080;2022-11-15T01:21:17;99600.28;;;8.12;100.00
16194;BME280;8204;53.582;10.080;2022-11-15T01:23:46;99602.28;;;8.10;100.00
16194;BME280;8204;53.582;10.080;2022-11-15T01:26:15;99603.91;;;8.11;100.00
16194;BME280;8204;53.582;10.080;2022-11-15T01:28:44;99624.94;;;8.09;100.00
16194;BME280;8204;53.582;10.080;2022-11-15T01:31:14;99637.34;;;8.07;100.00
16194;BME280;8204;53.582;10.080;2022-11-15T01:33:47;99640.94;;;8.06;100.00
16194;BME280;8204;53.582;10.080;2022-11-15T01:36:18;99656.28;;;8.01;100.00
16194;BME280;8204;53.582;10.080;2022-11-15T01:38:52;99658.25;;;7.99;100.00
16194;BME280;8204;53.582;10.080;2022-11-15T01:41:23;99657.75;;;7.96;100.00
16194;BME280;8204;53.582;10.080;2022-11-15T01:43:54;99656.31;;;7.94;100.00
16194;BME280;8204;53.582;10.080;2022-11-15T01:46:27;99646.50;;;7.95;100.00
16194;BME280;8204;53.582;10.080;2022-11-15T01:49:02;99659.91;;;7.93;100.00
16194;BME280;8204;53.582;10.080;2022-11-15T01:51:33;99658.63;;;7.89;100.00
16194;BME280;8204;53.582;10.080;2022-11-15T01:54:05;99674.59;;;7.86;100.00
16194;BME280;8204;53.582;10.080;2022-11-15T01:56:38;99673.78;;;7.85;100.00
16194;BME280;8204;53.582;10.080;2022-11-15T01:59:10;99660.25;;;7.82;100.00
16194;BME280;8204;53.582;10.080;2022-11-15T02:01:40;99645.25;;;7.84;100.00
16194;BME280;8204;53.582;10.080;2022-11-15T02:04:13;99654.72;;;7.77;100.00
16194;BME280;8204;53.582;10.080;2022-11-15T02:06:46;99650.94;;;7.79;100.00
16194;BME280;8204;53.582;10.080;2022-11-15T02:09:16;99663.69;;;7.74;100.00
16194;BME280;8204;53.582;10.080;2022-11-15T02:11:46;99680.16;;;7.67;100.00
16194;BME280;8204;53.582;10.080;2022-11-15T02:14:16;99667.94;;;7.67;100.00
16194;BME280;8204;53.582;10.080;2022-11-15T02:16:53;99674.66;;;7.62;100.00
16194;BME280;8204;53.582;10.080;2022-11-15T02:19:45;99679.19;;;7.60;100.00
16194;BME280;8204;53.582;10.080;2022-11-15T02:22:28;99671.06;;;7.55;100.00
16194;BME280;8204;53.582;10.080;2022-11-15T02:25:23;99676.59;;;7.52;100.00
16194;BME280;8204;53.582;10.080;2022-11-15T02:28:15;99634.09;;;7.51;100.00
16194;BME280;8204;53.582;10.080;2022-11-15T02:30:50;99618.59;;;7.50;100.00
16194;BME280;8204;53.582;10.080;2022-11-15T02:33:28;99592.22;;;7.53;100.00
16194;BME280;8204;53.582;10.080;2022-11-15T02:36:02;99569.09;;;7.50;100.00
16194;BME280;8204;53.582;10.080;2022-11-15T02:38:36;99553.13;;;7.53;100.00
16194;BME280;8204;53.582;10.080;2022-11-15T02:41:11;99530.81;;;7.58;100.00
16194;BME280;8204;53.582;10.080;2022-11-15T02:43:47;99527.38;;;7.58;100.00
16194;BME280;8204;53.582;10.080;2022-11-15T02:46:31;99516.94;;;7.58;100.00
16194;BME280;8204;53.582;10.080;2022-11-15T02:49:14;99505.88;;;7.56;100.00
16194;BME280;8204;53.582;10.080;2022-11-15T02:51:45;99522.50;;;7.55;100.00
16194;BME280;8204;53.582;10.080;2022-11-15T02:54:20;99503.28;;;7.56;100.00
16194;BME280;8204;53.582;10.080;2022-11-15T02:56:51;99493.84;;;7.55;100.00
16194;BME280;8204;53.582;10.080;2022-11-15T02:59:41;99492.69;;;7.57;100.00
16194;BME280;8204;53.582;10.080;2022-11-15T03:02:39;99485.03;;;7.56;100.00
16194;BME280;8204;53.582;10.080;2022-11-15T03:05:17;99476.88;;;7.59;100.00
16194;BME280;8204;53.582;10.080;2022-11-15T03:07:54;99487.66;;;7.56;100.00
16194;BME280;8204;53.582;10.080;2022-11-15T03:10:31;99499.66;;;7.57;100.00
16194;BME280;8204;53.582;10.080;2022-11-15T03:13:08;99504.25;;;7.55;100.00
16194;BME280;8204;53.582;10.080;2022-11-15T03:15:44;99519.06;;;7.54;100.00
16194;BME280;8204;53.582;10.080;2022-11-15T03:18:26;99520.03;;;7.53;100.00
16194;BME280;8204;53.582;10.080;2022-11-15T03:21:00;99525.13;;;7.55;100.00
16194;BME280;8204;53.582;10.080;2022-11-15T03:23:31;99534.09;;;7.52;100.00
16194;BME280;8204;53.582;10.080;2022-11-15T03:26:02;99519.06;;;7.54;100.00
16194;BME280;8204;53.582;10.080;2022-11-15T03:28:36;99507.50;;;7.57;100.00
16194;BME280;8204;53.582;10.080;2022-11-15T03:31:08;99524.59;;;7.59;100.00
16194;BME280;8204;53.582;10.080;2022-11-15T03:33:54;99534.88;;;7.53;100.00
16194;BME280;8204;53.582;10.080;2022-11-15T03:36:25;99536.16;;;7.57;100.00
16194;BME280;8204;53.582;10.080;2022-11-15T03:38:58;99520.38;;;7.58;100.00
16194;BME280;8204;53.582;10.080;2022-11-15T03:41:35;99528.69;;;7.54;100.00
16194;BME280;8204;53.582;10.080;2022-11-15T03:44:14;99522.66;;;7.53;100.00
16194;BME280;8204;53.582;10.080;2022-11-15T03:46:48;99509.78;;;7.60;100.00
16194;BME280;8204;53.582;10.080;2022-11-15T03:49:28;99538.47;;;7.52;100.00
16194;BME280;8204;53.582;10.080;2022-11-15T03:51:58;99516.97;;;7.50;100.00
16194;BME280;8204;53.582;10.080;2022-11-15T03:54:28;99504.59;;;7.52;100.00
16194;BME280;8204;53.582;10.080;2022-11-15T03:56:57;99484.38;;;7.54;100.00
16194;BME280;8204;53.582;10.080;2022-11-15T03:59:25;99492.84;;;7.56;100.00
16194;BME280;8204;53.582;10.080;2022-11-15T04:01:54;99487.78;;;7.54;100.00
16194;BME280;8204;53.582;10.080;2022-11-15T04:04:26;99509.47;;;7.55;100.00
16194;BME280;8204;53.582;10.080;2022-11-15T04:06:54;99506.22;;;7.53;100.00
16194;BME280;8204;53.582;10.080;2022-11-15T04:09:23;99481.91;;;7.60;100.00
16194;BME280;8204;53.582;10.080;2022-11-15T04:11:52;99484.97;;;7.64;100.00
16194;BME280;8204;53.582;10.080;2022-11-15T04:14:21;99483.66;;;7.68;100.00
16194;BME280;8204;53.582;10.080;2022-11-15T04:16:49;99480.13;;;7.61;100.00
16194;BME280;8204;53.582;10.080;2022-11-15T04:19:18;99483.41;;;7.55;100.00
16194;BME280;8204;53.582;10.080;2022-11-15T04:22:02;99489.59;;;7.54;100.00
16194;BME280;8204;53.582;10.080;2022-11-15T04:24:43;99493.00;;;7.54;100.00
16194;BME280;8204;53.582;10.080;2022-11-15T04:27:12;99509.16;;;7.50;100.00
16194;BME280;8204;53.582;10.080;2022-11-15T04:29:41;99531.97;;;7.48;100.00
16194;BME280;8204;53.582;10.080;2022-11-15T04:32:10;99535.75;;;7.45;100.00
16194;BME280;8204;53.582;10.080;2022-11-15T04:34:39;99523.50;;;7.46;100.00
16194;BME280;8204;53.582;10.080;2022-11-15T04:37:11;99524.47;;;7.45;100.00
16194;BME280;8204;53.582;10.080;2022-11-15T04:39:43;99503.63;;;7.45;100.00
16194;BME280;8204;53.582;10.080;2022-11-15T04:42:12;99517.63;;;7.44;100.00
16194;BME280;8204;53.582;10.080;2022-11-15T04:44:40;99523.84;;;7.43;100.00
16194;BME280;8204;53.582;10.080;2022-11-15T04:47:09;99513.44;;;7.43;100.00
16194;BME280;8204;53.582;10.080;2022-11-15T04:49:38;99503.63;;;7.45;100.00
16194;BME280;8204;53.582;10.080;2022-11-15T04:52:07;99484.41;;;7.46;100.00
16194;BME280;8204;53.582;10.080;2022-11-15T04:54:38;99483.72;;;7.52;100.00
16194;BME280;8204;53.582;10.080;2022-11-15T04:57:08;99465.31;;;7.53;100.00
16194;BME280;8204;53.582;10.080;2022-11-15T04:59:36;99430.59;;;7.61;100.00
16194;BME280;8204;53.582;10.080;2022-11-15T05:02:05;99425.38;;;7.61;100.00
16194;BME280;8204;53.582;10.080;2022-11-15T05:04:34;99413.00;;;7.63;100.00
16194;BME280;8204;53.582;10.080;2022-11-15T05:07:00;99405.00;;;7.64;100.00
16194;BME280;8204;53.582;10.080;2022-11-15T05:09:29;99395.03;;;7.68;100.00
16194;BME280;8204;53.582;10.080;2022-11-15T05:12:00;99380.66;;;7.72;100.00
16194;BME280;8204;53.582;10.080;2022-11-15T05:14:29;99362.00;;;7.83;100.00
16194;BME280;8204;53.582;10.080;2022-11-15T05:16:58;99355.34;;;7.80;100.00
16194;BME280;8204;53.582;10.080;2022-11-15T05:19:27;99347.00;;;7.85;100.00
16194;BME280;8204;53.582;10.080;2022-11-15T05:21:56;99334.41;;;7.88;100.00
16194;BME280;8204;53.582;10.080;2022-11-15T05:24:25;99326.88;;;7.93;100.00
16194;BME280;8204;53.582;10.080;2022-11-15T05:26:53;99306.94;;;8.00;100.00
16194;BME280;8204;53.582;10.080;2022-11-15T05:29:25;99310.00;;;8.03;100.00
16194;BME280;8204;53.582;10.080;2022-11-15T05:31:53;99304.25;;;8.08;100.00
16194;BME280;8204;53.582;10.080;2022-11-15T05:34:22;99303.91;;;8.11;100.00
16194;BME280;8204;53.582;10.080;2022-11-15T05:36:52;99295.56;;;8.15;100.00
16194;BME280;8204;53.582;10.080;2022-11-15T05:39:21;99296.84;;;8.19;100.00
16194;BME280;8204;53.582;10.080;2022-11-15T05:41:54;99299.25;;;8.21;100.00
16194;BME280;8204;53.582;10.080;2022-11-15T05:44:28;99294.88;;;8.21;100.00
16194;BME280;8204;53.582;10.080;2022-11-15T05:46:58;99294.16;;;8.27;100.00
16194;BME280;8204;53.582;10.080;2022-11-15T05:49:30;99293.31;;;8.27;100.00
16194;BME280;8204;53.582;10.080;2022-11-15T05:52:00;99281.63;;;8.37;100.00
16194;BME280;8204;53.582;10.080;2022-11-15T05:54:31;99287.84;;;8.36;100.00
16194;BME280;8204;53.582;10.080;2022-11-15T05:57:00;99294.50;;;8.39;100.00
16194;BME280;8204;53.582;10.080;2022-11-15T05:59:33;99299.63;;;8.47;100.00
16194;BME280;8204;53.582;10.080;2022-11-15T06:02:02;99308.00;;;8.42;100.00
16194;BME280;8204;53.582;10.080;2022-11-15T06:04:31;99317.91;;;8.47;100.00
16194;BME280;8204;53.582;10.080;2022-11-15T06:06:59;99304.66;;;8.48;100.00
16194;BME280;8204;53.582;10.080;2022-11-15T06:09:28;99303.34;;;8.52;100.00
16194;BME280;8204;53.582;10.080;2022-11-15T06:11:57;99298.13;;;8.52;100.00
16194;BME280;8204;53.582;10.080;2022-11-15T06:14:26;99302.94;;;8.55;100.00
16194;BME280;8204;53.582;10.080;2022-11-15T06:16:58;99313.84;;;8.59;100.00
16194;BME280;8204;53.582;10.080;2022-11-15T06:19:27;99316.66;;;8.57;100.00
16194;BME280;8204;53.582;10.080;2022-11-15T06:21:58;99319.91;;;8.59;100.00
16194;BME280;8204;53.582;10.080;2022-11-15T06:24:27;99311.09;;;8.60;100.00
16194;BME280;8204;53.582;10.080;2022-11-15T06:26:56;99301.88;;;8.64;100.00
16194;BME280;8204;53.582;10.080;2022-11-15T06:29:26;99300.91;;;8.65;100.00
16194;BME280;8204;53.582;10.080;2022-11-15T06:31:57;99300.72;;;8.67;100.00
16194;BME280;8204;53.582;10.080;2022-11-15T06:34:26;99303.13;;;8.68;100.00
16194;BME280;8204;53.582;10.080;2022-11-15T06:36:55;99309.78;;;8.70;100.00
16194;BME280;8204;53.582;10.080;2022-11-15T06:39:24;99311.31;;;8.79;100.00
16194;BME280;8204;53.582;10.080;2022-11-15T06:41:52;99305.31;;;8.79;100.00
16194;BME280;8204;53.582;10.080;2022-11-15T06:44:21;99320.78;;;8.80;100.00
16194;BME280;8204;53.582;10.080;2022-11-15T06:46:50;99320.97;;;8.79;100.00
16194;BME280;8204;53.582;10.080;2022-11-15T06:49:21;99332.59;;;8.76;100.00
16194;BME280;8204;53.582;10.080;2022-11-15T06:51:50;99347.88;;;8.79;100.00
16194;BME280;8204;53.582;10.080;2022-11-15T06:54:19;99363.56;;;8.79;100.00
16194;BME280;8204;53.582;10.080;2022-11-15T06:56:48;99359.94;;;8.80;100.00
16194;BME280;8204;53.582;10.080;2022-11-15T06:59:16;99361.94;;;8.78;100.00
16194;BME280;8204;53.582;10.080;2022-11-15T07:01:45;99353.38;;;8.84;100.00
16194;BME280;8204;53.582;10.080;2022-11-15T07:04:14;99357.78;;;8.84;100.00
16194;BME280;8204;53.582;10.080;2022-11-15T07:06:45;99358.06;;;8.89;100.00
16194;BME280;8204;53.582;10.080;2022-11-15T07:09:14;99365.88;;;8.89;100.00
16194;BME280;8204;53.582;10.080;2022-11-15T07:11:43;99372.75;;;8.90;100.00
16194;BME280;8204;53.582;10.080;2022-11-15T07:14:12;99364.91;;;8.90;100.00
16194;BME280;8204;53.582;10.080;2022-11-15T07:16:41;99366.34;;;8.92;100.00
16194;BME280;8204;53.582;10.080;2022-11-15T07:19:10;99371.38;;;8.94;100.00
16194;BME280;8204;53.582;10.080;2022-11-15T07:21:39;99385.44;;;8.93;100.00
16194;BME280;8204;53.582;10.080;2022-11-15T07:24:10;99374.28;;;8.99;100.00
16194;BME280;8204;53.582;10.080;2022-11-15T07:26:39;99361.81;;;9.01;100.00
16194;BME280;8204;53.582;10.080;2022-11-15T07:29:08;99370.09;;;9.04;100.00
16194;BME280;8204;53.582;10.080;2022-11-15T07:31:36;99379.03;;;9.10;100.00
16194;BME280;8204;53.582;10.080;2022-11-15T07:34:05;99382.81;;;9.07;100.00
16194;BME280;8204;53.582;10.080;2022-11-15T07:36:35;99384.69;;;9.13;100.00
16194;BME280;8204;53.582;10.080;2022-11-15T07:39:04;99389.75;;;9.15;100.00
16194;BME280;8204;53.582;10.080;2022-11-15T07:41:35;99401.19;;;9.14;100.00
16194;BME280;8204;53.582;10.080;2022-11-15T07:44:04;99401.19;;;9.14;100.00
16194;BME280;8204;53.582;10.080;2022-11-15T07:46:33;99402.44;;;9.18;100.00
16194;BME280;8204;53.582;10.080;2022-11-15T07:49:02;99406.84;;;9.17;100.00
16194;BME280;8204;53.582;10.080;2022-11-15T07:51:31;99400.28;;;9.21;100.00
16194;BME280;8204;53.582;10.080;2022-11-15T07:54:02;99395.50;;;9.25;100.00
16194;BME280;8204;53.582;10.080;2022-11-15T07:56:31;99402.16;;;9.27;100.00
16194;BME280;8204;53.582;10.080;2022-11-15T07:59:02;99411.63;;;9.28;100.00
16194;BME280;8204;53.582;10.080;2022-11-15T08:01:31;99410.63;;;9.29;100.00
16194;BME280;8204;53.582;10.080;2022-11-15T08:04:00;99410.81;;;9.28;100.00
16194;BME280;8204;53.582;10.080;2022-11-15T08:06:28;99419.28;;;9.30;100.00
16194;BME280;8204;53.582;10.080;2022-11-15T08:08:57;99424.13;;;9.33;100.00
16194;BME280;8204;53.582;10.080;2022-11-15T08:11:26;99439.22;;;9.31;100.00
16194;BME280;8204;53.582;10.080;2022-11-15T08:13:55;99435.41;;;9.33;100.00
16194;BME280;8204;53.582;10.080;2022-11-15T08:16:26;99439.22;;;9.31;100.00
16194;BME280;8204;53.582;10.080;2022-11-15T08:18:55;99433.34;;;9.29;100.00
16194;BME280;8204;53.582;10.080;2022-11-15T08:21:24;99434.97;;;9.30;100.00
16194;BME280;8204;53.582;10.080;2022-11-15T08:23:53;99433.97;;;9.31;100.00
16194;BME280;8204;53.582;10.080;2022-11-15T08:26:23;99445.22;;;9.31;100.00
16194;BME280;8204;53.582;10.080;2022-11-15T08:28:54;99453.53;;;9.35;100.00
16194;BME280;8204;53.582;10.080;2022-11-15T08:31:26;99460.19;;;9.37;100.00
16194;BME280;8204;53.582;10.080;2022-11-15T08:33:55;99461.00;;;9.38;100.00
16194;BME280;8204;53.582;10.080;2022-11-15T08:36:23;99452.53;;;9.36;100.00
16194;BME280;8204;53.582;10.080;2022-11-15T08:38:52;99452.19;;;9.39;100.00
16194;BME280;8204;53.582;10.080;2022-11-15T08:41:25;99447.22;;;9.43;100.00
16194;BME280;8204;53.582;10.080;2022-11-15T08:43:55;99452.44;;;9.43;100.00
16194;BME280;8204;53.582;10.080;2022-11-15T08:46:26;99452.06;;;9.46;100.00
16194;BME280;8204;53.582;10.080;2022-11-15T08:48:55;99469.03;;;9.50;100.00
16194;BME280;8204;53.582;10.080;2022-11-15T08:51:24;99444.31;;;9.53;100.00
16194;BME280;8204;53.582;10.080;2022-11-15T08:53:52;99462.63;;;9.53;100.00
16194;BME280;8204;53.582;10.080;2022-11-15T08:56:21;99464.59;;;9.51;100.00
16194;BME280;8204;53.582;10.080;2022-11-15T08:58:50;99454.13;;;9.51;100.00
16194;BME280;8204;53.582;10.080;2022-11-15T09:01:19;99450.59;;;9.58;100.00
16194;BME280;8204;53.582;10.080;2022-11-15T09:03:51;99454.22;;;9.57;100.00
16194;BME280;8204;53.582;10.080;2022-11-15T09:06:20;99467.91;;;9.59;100.00
16194;BME280;8204;53.582;10.080;2022-11-15T09:08:49;99468.78;;;9.66;100.00
16194;BME280;8204;53.582;10.080;2022-11-15T09:11:18;99468.78;;;9.66;100.00
16194;BME280;8204;53.582;10.080;2022-11-15T09:13:47;99471.31;;;9.74;100.00
16194;BME280;8204;53.582;10.080;2022-11-15T09:16:17;99484.38;;;9.74;100.00
16194;BME280;8204;53.582;10.080;2022-11-15T09:18:46;99465.34;;;9.80;100.00
16194;BME280;8204;53.582;10.080;2022-11-15T09:21:18;99469.22;;;9.84;100.00
16194;BME280;8204;53.582;10.080;2022-11-15T09:23:46;99469.91;;;9.93;100.00
16194;BME280;8204;53.582;10.080;2022-11-15T09:26:15;99469.09;;;9.92;100.00
16194;BME280;8204;53.582;10.080;2022-11-15T09:28:44;99477.25;;;9.97;100.00
16194;BME280;8204;53.582;10.080;2022-11-15T09:31:13;99490.19;;;10.05;100.00
16194;BME280;8204;53.582;10.080;2022-11-15T09:33:43;99498.88;;;10.06;100.00
16194;BME280;8204;53.582;10.080;2022-11-15T09:36:13;99499.56;;;10.14;100.00
16194;BME280;8204;53.582;10.080;2022-11-15T09:38:45;99497.59;;;10.16;100.00
16194;BME280;8204;53.582;10.080;2022-11-15T09:41:28;99495.66;;;10.24;100.00
16194;BME280;8204;53.582;10.080;2022-11-15T09:44:11;99491.84;;;10.27;100.00
16194;BME280;8204;53.582;10.080;2022-11-15T09:46:49;99488.13;;;10.36;100.00
16194;BME280;8204;53.582;10.080;2022-11-15T09:49:22;99511.28;;;10.39;100.00
16194;BME280;8204;53.582;10.080;2022-11-15T09:51:53;99521.44;;;10.48;100.00
16194;BME280;8204;53.582;10.080;2022-11-15T09:54:29;99527.50;;;10.49;100.00
16194;BME280;8204;53.582;10.080;2022-11-15T09:57:04;99512.41;;;10.51;100.00
16194;BME280;8204;53.582;10.080;2022-11-15T09:59:47;99508.03;;;10.58;100.00
16194;BME280;8204;53.582;10.080;2022-11-15T10:02:33;99508.91;;;10.65;100.00
16194;BME280;8204;53.582;10.080;2022-11-15T10:05:08;99504.53;;;10.72;100.00
16194;BME280;8204;53.582;10.080;2022-11-15T10:07:46;99499.16;;;10.80;100.00
16194;BME280;8204;53.582;10.080;2022-11-15T10:10:25;99503.28;;;10.89;100.00
16194;BME280;8204;53.582;10.080;2022-11-15T10:12:57;99521.03;;;10.93;100.00
16194;BME280;8204;53.582;10.080;2022-11-15T10:15:27;99513.84;;;11.01;100.00
16194;BME280;8204;53.582;10.080;2022-11-15T10:18:07;99504.81;;;11.10;100.00
16194;BME280;8204;53.582;10.080;2022-11-15T10:20:47;99509.69;;;11.13;100.00
16194;BME280;8204;53.582;10.080;2022-11-15T10:23:18;99498.81;;;11.16;100.00
16194;BME280;8204;53.582;10.080;2022-11-15T10:25:50;99485.97;;;11.21;100.00
16194;BME280;8204;53.582;10.080;2022-11-15T10:28:22;99496.84;;;11.25;100.00
16194;BME280;8204;53.582;10.080;2022-11-15T10:30:55;99500.72;;;11.29;100.00
16194;BME280;8204;53.582;10.080;2022-11-15T10:33:27;99484.41;;;11.33;100.00
16194;BME280;8204;53.582;10.080;2022-11-15T10:36:15;99484.22;;;11.41;100.00
16194;BME280;8204;53.582;10.080;2022-11-15T10:38:57;99475.97;;;11.44;100.00
16194;BME280;8204;53.582;10.080;2022-11-15T10:41:36;99475.19;;;11.50;100.00
16194;BME280;8204;53.582;10.080;2022-11-15T10:44:22;99460.28;;;11.51;100.00
16194;BME280;8204;53.582;10.080;2022-11-15T10:47:19;99452.66;;;11.56;100.00
16194;BME280;8204;53.582;10.080;2022-11-15T10:50:01;99449.47;;;11.60;100.00
16194;BME280;8204;53.582;10.080;2022-11-15T10:52:31;99468.81;;;11.59;100.00
16194;BME280;8204;53.582;10.080;2022-11-15T10:55:04;99455.94;;;11.64;100.00
16194;BME280;8204;53.582;10.080;2022-11-15T10:57:38;99474.31;;;11.70;100.00
16194;BME280;8204;53.582;10.080;2022-11-15T11:00:27;99459.81;;;11.74;100.00
16194;BME280;8204;53.582;10.080;2022-11-15T11:02:58;99469.09;;;11.77;100.00
16194;BME280;8204;53.582;10.080;2022-11-15T11:05:29;99451.34;;;11.79;100.00
16194;BME280;8204;53.582;10.080;2022-11-15T11:08:02;99443.06;;;11.82;100.00
16194;BME280;8204;53.582;10.080;2022-11-15T11:10:31;99449.31;;;11.81;100.00
16194;BME280;8204;53.582;10.080;2022-11-15T11:13:22;99441.06;;;11.90;100.00
16194;BME280;8204;53.582;10.080;2022-11-15T11:15:55;99451.56;;;11.90;100.00
16194;BME280;8204;53.582;10.080;2022-11-15T11:18:33;99440.88;;;11.92;100.00
16194;BME280;8204;53.582;10.080;2022-11-15T11:21:09;99450.78;;;11.96;100.00
16194;BME280;8204;53.582;10.080;2022-11-15T11:23:45;99454.63;;;12.00;100.00
16194;BME280;8204;53.582;10.080;2022-11-15T11:26:40;99460.91;;;12.06;100.00
16194;BME280;8204;53.582;10.080;2022-11-15T11:29:24;99467.38;;;12.10;100.00
16194;BME280;8204;53.582;10.080;2022-11-15T11:32:00;99454.03;;;12.11;100.00
16194;BME280;8204;53.582;10.080;2022-11-15T11:34:40;99451.59;;;12.16;100.00
16194;BME280;8204;53.582;10.080;2022-11-15T11:37:17;99466.38;;;12.17;100.00
16194;BME280;8204;53.582;10.080;2022-11-15T11:39:57;99454.06;;;12.18;100.00
16194;BME280;8204;53.582;10.080;2022-11-15T11:42:35;99446.78;;;12.20;100.00
16194;BME280;8204;53.582;10.080;2022-11-15T11:45:15;99433.88;;;12.25;100.00
16194;BME280;8204;53.582;10.080;2022-11-15T11:47:51;99429.63;;;12.24;100.00
16194;BME280;8204;53.582;10.080;2022-11-15T11:50:22;99424.97;;;12.26;100.00
16194;BME280;8204;53.582;10.080;2022-11-15T11:52:57;99422.56;;;12.31;100.00
16194;BME280;8204;53.582;10.080;2022-11-15T11:55:31;99444.78;;;12.35;100.00
16194;BME280;8204;53.582;10.080;2022-11-15T11:58:08;99457.13;;;12.34;100.00
16194;BME280;8204;53.582;10.080;2022-11-15T12:00:46;99459.53;;;12.36;100.00
16194;BME280;8204;53.582;10.080;2022-11-15T12:03:22;99453.69;;;12.40;100.00
16194;BME280;8204;53.582;10.080;2022-11-15T12:05:56;99466.59;;;12.41;100.00
16194;BME280;8204;53.582;10.080;2022-11-15T12:08:31;99462.56;;;12.45;100.00
16194;BME280;8204;53.582;10.080;2022-11-15T12:11:08;99451.66;;;12.48;100.00
16194;BME280;8204;53.582;10.080;2022-11-15T12:13:39;99462.78;;;12.50;100.00
16194;BME280;8204;53.582;10.080;2022-11-15T12:16:17;99460.13;;;12.57;100.00
16194;BME280;8204;53.582;10.080;2022-11-15T12:18:50;99470.06;;;12.61;100.00
16194;BME280;8204;53.582;10.080;2022-11-15T12:21:27;99471.47;;;12.64;100.00
16194;BME280;8204;53.582;10.080;2022-11-15T12:24:01;99460.34;;;12.68;100.00
16194;BME280;8204;53.582;10.080;2022-11-15T12:26:36;99458.91;;;12.72;100.00
16194;BME280;8204;53.582;10.080;2022-11-15T12:29:11;99452.84;;;12.78;100.00
16194;BME280;8204;53.582;10.080;2022-11-15T12:31:49;99459.94;;;12.84;100.00
16194;BME280;8204;53.582;10.080;2022-11-15T12:34:45;99469.03;;;12.95;100.00
16194;BME280;8204;53.582;10.080;2022-11-15T12:40:28;99501.41;;;13.08;100.00
16194;BME280;8204;53.582;10.080;2022-11-15T12:43:00;99510.09;;;13.15;100.00
16194;BME280;8204;53.582;10.080;2022-11-15T12:45:31;99513.09;;;13.25;100.00
16194;BME280;8204;53.582;10.080;2022-11-15T12:51:01;99535.13;;;13.43;100.00
16194;BME280;8204;53.582;10.080;2022-11-15T12:53:32;99550.91;;;13.50;100.00
16194;BME280;8204;53.582;10.080;2022-11-15T12:56:20;99579.25;;;13.61;100.00
16194;BME280;8204;53.582;10.080;2022-11-15T12:58:55;99572.94;;;13.68;100.00
16194;BME280;8204;53.582;10.080;2022-11-15T13:01:54;99596.19;;;13.78;100.00
16194;BME280;8204;53.582;10.080;2022-11-15T13:04:28;99619.50;;;13.81;100.00
16194;BME280;8204;53.582;10.080;2022-11-15T13:07:02;99636.50;;;13.84;100.00
16194;BME280;8204;53.582;10.080;2022-11-15T13:09:52;99661.00;;;13.91;100.00
16194;BME280;8204;53.582;10.080;2022-11-15T13:12:49;99663.63;;;13.91;100.00
16194;BME280;8204;53.582;10.080;2022-11-15T13:15:34;99683.06;;;13.90;100.00
16194;BME280;8204;53.582;10.080;2022-11-15T13:18:25;99673.16;;;13.92;100.00
16194;BME280;8204;53.582;10.080;2022-11-15T13:20:55;99680.66;;;13.89;100.00
16194;BME280;8204;53.582;10.080;2022-11-15T13:23:26;99677.81;;;13.90;100.00
16194;BME280;8204;53.582;10.080;2022-11-15T13:26:08;99672.94;;;13.94;100.00
16194;BME280;8204;53.582;10.080;2022-11-15T13:28:42;99680.03;;;13.93;100.00
16194;BME280;8204;53.582;10.080;2022-11-15T13:31:25;99678.81;;;13.96;100.00
16194;BME280;8204;53.582;10.080;2022-11-15T13:33:59;99680.22;;;13.98;100.00